sensor_id;sensor_type;location;lat;lon;timestamp;temperature;humidity
21039;DHT22;10678;51.002;4.786;2022-12-07T00:03:42;6.40;99.90
21039;DHT22;10678;51.002;4.786;2022-12-07T00:06:10;6.40;99.90
21039;DHT22;10678;51.002;4.786;2022-12-07T00:08:36;6.30;99.90
21039;DHT22;10678;51.002;4.786;2022-12-07T00:11:06;6.20;99.90
21039;DHT22;10678;51.002;4.786;2022-12-07T00:13:33;6.20;99.90
21039;DHT22;10678;51.002;4.786;2022-12-07T00:16:19;6.40;99.90
21039;DHT22;10678;51.002;4.786;2022-12-07T00:18:45;6.40;99.90
21039;DHT22;10678;51.002;4.786;2022-12-07T00:21:12;6.40;99.90
21039;DHT22;10678;51.002;4.786;2022-12-07T00:23:39;6.30;99.90
21039;DHT22;10678;51.002;4.786;2022-12-07T00:26:08;6.40;99.90
21039;DHT22;10678;51.002;4.786;2022-12-07T00:28:35;6.40;99.90
21039;DHT22;10678;51.002;4.786;2022-12-07T00:31:04;6.50;99.90
21039;DHT22;10678;51.002;4.786;2022-12-07T00:33:30;6.40;99.90
21039;DHT22;10678;51.002;4.786;2022-12-07T00:35:57;6.40;99.90
21039;DHT22;10678;51.002;4.786;2022-12-07T00:38:23;6.40;99.90
21039;DHT22;10678;51.002;4.786;2022-12-07T00:41:16;6.50;99.90
21039;DHT22;10678;51.002;4.786;2022-12-07T00:43:44;6.50;99.90
21039;DHT22;10678;51.002;4.786;2022-12-07T00:46:10;6.40;99.90
21039;DHT22;10678;51.002;4.786;2022-12-07T00:48:36;6.50;99.90
21039;DHT22;10678;51.002;4.786;2022-12-07T00:51:03;6.50;99.90
21039;DHT22;10678;51.002;4.786;2022-12-07T00:53:29;6.50;99.90
21039;DHT22;10678;51.002;4.786;2022-12-07T00:55:55;6.60;99.90
21039;DHT22;10678;51.002;4.786;2022-12-07T00:58:24;6.60;99.90
21039;DHT22;10678;51.002;4.786;2022-12-07T01:00:49;6.60;99.90
21039;DHT22;10678;51.002;4.786;2022-12-07T01:03:15;6.50;99.90
21039;DHT22;10678;51.002;4.786;2022-12-07T01:05:52;6.60;99.90
21039;DHT22;10678;51.002;4.786;2022-12-07T01:08:19;6.60;99.90
21039;DHT22;10678;51.002;4.786;2022-12-07T01:10:45;6.60;99.90
21039;DHT22;10678;51.002;4.786;2022-12-07T01:13:10;6.60;99.90
21039;DHT22;10678;51.002;4.786;2022-12-07T01:15:42;6.60;99.90
21039;DHT22;10678;51.002;4.786;2022-12-07T01:18:08;6.50;99.90
21039;DHT22;10678;51.002;4.786;2022-12-07T01:20:34;6.50;99.90
21039;DHT22;10678;51.002;4.786;2022-12-07T01:23:00;6.50;99.90
21039;DHT22;10678;51.002;4.786;2022-12-07T01:25:25;6.40;99.90
21039;DHT22;10678;51.002;4.786;2022-12-07T01:27:51;6.40;99.90
21039;DHT22;10678;51.002;4.786;2022-12-07T01:30:17;6.40;99.90
21039;DHT22;10678;51.002;4.786;2022-12-07T01:32:42;6.50;99.90
21039;DHT22;10678;51.002;4.786;2022-12-07T01:35:08;6.30;99.90
21039;DHT22;10678;51.002;4.786;2022-12-07T01:37:38;6.40;99.90
21039;DHT22;10678;51.002;4.786;2022-12-07T01:40:07;6.40;99.90
21039;DHT22;10678;51.002;4.786;2022-12-07T01:42:34;6.40;99.90
21039;DHT22;10678;51.002;4.786;2022-12-07T01:47:52;6.30;99.90
21039;DHT22;10678;51.002;4.786;2022-12-07T01:50:20;6.30;99.90
21039;DHT22;10678;51.002;4.786;2022-12-07T01:52:49;6.40;99.90
21039;DHT22;10678;51.002;4.786;2022-12-07T01:55:16;6.40;99.90
21039;DHT22;10678;51.002;4.786;2022-12-07T01:57:47;6.30;99.90
21039;DHT22;10678;51.002;4.786;2022-12-07T02:00:14;6.30;99.90
21039;DHT22;10678;51.002;4.786;2022-12-07T02:03:08;6.30;99.90
21039;DHT22;10678;51.002;4.786;2022-12-07T02:05:35;6.30;99.90
21039;DHT22;10678;51.002;4.786;2022-12-07T02:08:03;6.30;99.90
21039;DHT22;10678;51.002;4.786;2022-12-07T02:10:30;6.10;99.90
21039;DHT22;10678;51.002;4.786;2022-12-07T02:13:05;6.20;99.90
21039;DHT22;10678;51.002;4.786;2022-12-07T02:18:41;6.30;99.90
21039;DHT22;10678;51.002;4.786;2022-12-07T02:29:27;6.30;99.90
21039;DHT22;10678;51.002;4.786;2022-12-07T02:32:23;6.20;99.90
21039;DHT22;10678;51.002;4.786;2022-12-07T02:34:53;6.20;99.90
21039;DHT22;10678;51.002;4.786;2022-12-07T02:37:41;6.10;99.90
21039;DHT22;10678;51.002;4.786;2022-12-07T02:40:37;6.20;99.90
21039;DHT22;10678;51.002;4.786;2022-12-07T02:43:23;6.20;99.90
21039;DHT22;10678;51.002;4.786;2022-12-07T02:45:51;6.20;99.90
21039;DHT22;10678;51.002;4.786;2022-12-07T02:48:19;6.20;99.90
21039;DHT22;10678;51.002;4.786;2022-12-07T02:50:48;6.20;99.90
21039;DHT22;10678;51.002;4.786;2022-12-07T02:53:36;6.20;99.90
21039;DHT22;10678;51.002;4.786;2022-12-07T03:10:38;5.80;99.90
21039;DHT22;10678;51.002;4.786;2022-12-07T03:18:23;6.00;99.90
21039;DHT22;10678;51.002;4.786;2022-12-07T03:20:52;6.00;99.90
21039;DHT22;10678;51.002;4.786;2022-12-07T03:23:19;5.90;99.90
21039;DHT22;10678;51.002;4.786;2022-12-07T03:25:48;5.90;99.90
21039;DHT22;10678;51.002;4.786;2022-12-07T03:28:17;6.00;99.90
21039;DHT22;10678;51.002;4.786;2022-12-07T03:33:22;6.10;99.90
21039;DHT22;10678;51.002;4.786;2022-12-07T03:35:57;6.10;99.90
21039;DHT22;10678;51.002;4.786;2022-12-07T03:38:48;6.20;99.90
21039;DHT22;10678;51.002;4.786;2022-12-07T03:41:24;6.20;99.90
21039;DHT22;10678;51.002;4.786;2022-12-07T03:43:50;6.10;99.90
21039;DHT22;10678;51.002;4.786;2022-12-07T03:56:49;6.10;99.90
21039;DHT22;10678;51.002;4.786;2022-12-07T03:59:16;6.00;99.90
21039;DHT22;10678;51.002;4.786;2022-12-07T04:01:52;5.90;99.90
21039;DHT22;10678;51.002;4.786;2022-12-07T04:04:18;5.70;99.90
21039;DHT22;10678;51.002;4.786;2022-12-07T04:06:43;5.70;99.90
21039;DHT22;10678;51.002;4.786;2022-12-07T04:09:09;5.60;99.90
21039;DHT22;10678;51.002;4.786;2022-12-07T04:11:34;5.50;99.90
21039;DHT22;10678;51.002;4.786;2022-12-07T04:14:00;5.50;99.90
21039;DHT22;10678;51.002;4.786;2022-12-07T04:16:52;5.30;99.90
21039;DHT22;10678;51.002;4.786;2022-12-07T04:19:20;5.20;99.90
21039;DHT22;10678;51.002;4.786;2022-12-07T04:21:47;5.20;99.90
21039;DHT22;10678;51.002;4.786;2022-12-07T04:24:14;5.20;99.90
21039;DHT22;10678;51.002;4.786;2022-12-07T04:26:40;5.10;99.90
21039;DHT22;10678;51.002;4.786;2022-12-07T04:29:07;5.10;99.90
21039;DHT22;10678;51.002;4.786;2022-12-07T04:31:32;5.00;99.90
21039;DHT22;10678;51.002;4.786;2022-12-07T04:33:58;4.90;99.90
21039;DHT22;10678;51.002;4.786;2022-12-07T04:36:24;5.00;99.90
21039;DHT22;10678;51.002;4.786;2022-12-07T04:38:49;4.90;99.90
21039;DHT22;10678;51.002;4.786;2022-12-07T04:41:15;4.90;99.90
21039;DHT22;10678;51.002;4.786;2022-12-07T04:43:40;4.90;99.90
21039;DHT22;10678;51.002;4.786;2022-12-07T04:46:06;4.90;99.90
21039;DHT22;10678;51.002;4.786;2022-12-07T04:48:32;4.80;99.90
21039;DHT22;10678;51.002;4.786;2022-12-07T04:50:57;4.90;99.90
21039;DHT22;10678;51.002;4.786;2022-12-07T04:53:23;4.90;99.90
21039;DHT22;10678;51.002;4.786;2022-12-07T04:55:49;4.80;99.90
21039;DHT22;10678;51.002;4.786;2022-12-07T04:58:14;4.70;99.90
21039;DHT22;10678;51.002;4.786;2022-12-07T05:00:40;4.70;99.90
21039;DHT22;10678;51.002;4.786;2022-12-07T05:03:06;4.70;99.90
21039;DHT22;10678;51.002;4.786;2022-12-07T05:05:31;4.70;99.90
21039;DHT22;10678;51.002;4.786;2022-12-07T05:07:57;4.70;99.90
21039;DHT22;10678;51.002;4.786;2022-12-07T05:10:23;4.70;99.90
21039;DHT22;10678;51.002;4.786;2022-12-07T05:12:48;4.70;99.90
21039;DHT22;10678;51.002;4.786;2022-12-07T05:15:14;4.90;99.90
21039;DHT22;10678;51.002;4.786;2022-12-07T05:17:40;5.00;99.90
21039;DHT22;10678;51.002;4.786;2022-12-07T05:20:07;5.00;99.90
21039;DHT22;10678;51.002;4.786;2022-12-07T05:22:33;5.20;99.90
21039;DHT22;10678;51.002;4.786;2022-12-07T05:24:59;5.20;99.90
21039;DHT22;10678;51.002;4.786;2022-12-07T05:27:24;5.40;99.90
21039;DHT22;10678;51.002;4.786;2022-12-07T05:29:50;5.40;99.90
21039;DHT22;10678;51.002;4.786;2022-12-07T05:32:16;5.50;99.90
21039;DHT22;10678;51.002;4.786;2022-12-07T05:34:41;5.50;99.90
21039;DHT22;10678;51.002;4.786;2022-12-07T05:37:07;5.60;99.90
21039;DHT22;10678;51.002;4.786;2022-12-07T05:39:32;5.60;99.90
21039;DHT22;10678;51.002;4.786;2022-12-07T05:41:58;5.70;99.90
21039;DHT22;10678;51.002;4.786;2022-12-07T05:44:40;5.70;99.90
21039;DHT22;10678;51.002;4.786;2022-12-07T05:47:06;5.60;99.90
21039;DHT22;10678;51.002;4.786;2022-12-07T05:49:32;5.70;99.90
21039;DHT22;10678;51.002;4.786;2022-12-07T05:51:57;5.60;99.90
21039;DHT22;10678;51.002;4.786;2022-12-07T05:54:23;5.60;99.90
21039;DHT22;10678;51.002;4.786;2022-12-07T05:56:49;5.70;99.90
21039;DHT22;10678;51.002;4.786;2022-12-07T05:59:15;5.70;99.90
21039;DHT22;10678;51.002;4.786;2022-12-07T06:02:01;5.60;99.90
21039;DHT22;10678;51.002;4.786;2022-12-07T06:04:29;5.70;99.90
21039;DHT22;10678;51.002;4.786;2022-12-07T06:06:56;5.60;99.90
21039;DHT22;10678;51.002;4.786;2022-12-07T06:09:22;5.60;99.90
21039;DHT22;10678;51.002;4.786;2022-12-07T06:11:48;5.50;99.90
21039;DHT22;10678;51.002;4.786;2022-12-07T06:14:32;5.50;99.90
21039;DHT22;10678;51.002;4.786;2022-12-07T06:16:59;5.50;99.90
21039;DHT22;10678;51.002;4.786;2022-12-07T06:19:25;5.40;99.90
21039;DHT22;10678;51.002;4.786;2022-12-07T06:21:51;5.50;99.90
21039;DHT22;10678;51.002;4.786;2022-12-07T06:24:17;5.40;99.90
21039;DHT22;10678;51.002;4.786;2022-12-07T06:26:43;5.50;99.90
21039;DHT22;10678;51.002;4.786;2022-12-07T06:29:09;5.50;99.90
21039;DHT22;10678;51.002;4.786;2022-12-07T06:31:36;5.40;99.90
21039;DHT22;10678;51.002;4.786;2022-12-07T06:34:04;5.40;99.90
21039;DHT22;10678;51.002;4.786;2022-12-07T06:36:30;5.40;99.90
21039;DHT22;10678;51.002;4.786;2022-12-07T06:38:56;5.50;99.90
21039;DHT22;10678;51.002;4.786;2022-12-07T06:41:22;5.60;99.90
21039;DHT22;10678;51.002;4.786;2022-12-07T06:43:49;5.50;99.90
21039;DHT22;10678;51.002;4.786;2022-12-07T06:46:15;5.50;99.90
21039;DHT22;10678;51.002;4.786;2022-12-07T06:48:41;5.50;99.90
21039;DHT22;10678;51.002;4.786;2022-12-07T06:51:07;5.50;99.90
21039;DHT22;10678;51.002;4.786;2022-12-07T06:53:33;5.60;99.90
21039;DHT22;10678;51.002;4.786;2022-12-07T06:55:59;5.60;99.90
21039;DHT22;10678;51.002;4.786;2022-12-07T06:58:25;5.70;99.90
21039;DHT22;10678;51.002;4.786;2022-12-07T07:00:50;5.60;99.90
21039;DHT22;10678;51.002;4.786;2022-12-07T07:03:16;5.50;99.90
21039;DHT22;10678;51.002;4.786;2022-12-07T07:05:43;5.50;99.90
21039;DHT22;10678;51.002;4.786;2022-12-07T07:08:10;5.60;99.90
21039;DHT22;10678;51.002;4.786;2022-12-07T07:10:36;5.60;99.90
21039;DHT22;10678;51.002;4.786;2022-12-07T07:13:02;5.70;99.90
21039;DHT22;10678;51.002;4.786;2022-12-07T07:15:28;5.70;99.90
21039;DHT22;10678;51.002;4.786;2022-12-07T07:17:53;5.80;99.90
21039;DHT22;10678;51.002;4.786;2022-12-07T07:20:19;5.70;99.90
21039;DHT22;10678;51.002;4.786;2022-12-07T07:22:45;5.60;99.90
21039;DHT22;10678;51.002;4.786;2022-12-07T07:25:10;5.70;99.90
21039;DHT22;10678;51.002;4.786;2022-12-07T07:27:36;5.80;99.90
21039;DHT22;10678;51.002;4.786;2022-12-07T07:30:03;5.70;99.90
21039;DHT22;10678;51.002;4.786;2022-12-07T07:32:28;5.60;99.90
21039;DHT22;10678;51.002;4.786;2022-12-07T07:34:54;5.30;99.90
21039;DHT22;10678;51.002;4.786;2022-12-07T07:37:19;5.20;99.90
21039;DHT22;10678;51.002;4.786;2022-12-07T07:39:45;5.10;99.90
21039;DHT22;10678;51.002;4.786;2022-12-07T07:42:10;5.10;99.90
21039;DHT22;10678;51.002;4.786;2022-12-07T07:44:36;5.00;99.90
21039;DHT22;10678;51.002;4.786;2022-12-07T07:47:02;4.90;99.90
21039;DHT22;10678;51.002;4.786;2022-12-07T07:49:28;4.80;99.90
21039;DHT22;10678;51.002;4.786;2022-12-07T07:51:54;4.80;99.90
21039;DHT22;10678;51.002;4.786;2022-12-07T07:54:19;4.70;99.90
21039;DHT22;10678;51.002;4.786;2022-12-07T07:56:45;4.80;99.90
21039;DHT22;10678;51.002;4.786;2022-12-07T07:59:10;4.80;99.90
21039;DHT22;10678;51.002;4.786;2022-12-07T08:01:36;4.70;99.90
21039;DHT22;10678;51.002;4.786;2022-12-07T08:04:01;4.70;99.90
21039;DHT22;10678;51.002;4.786;2022-12-07T08:06:27;4.70;99.90
21039;DHT22;10678;51.002;4.786;2022-12-07T08:08:53;4.90;99.90
21039;DHT22;10678;51.002;4.786;2022-12-07T08:11:18;5.00;99.90
21039;DHT22;10678;51.002;4.786;2022-12-07T08:13:47;5.10;99.90
21039;DHT22;10678;51.002;4.786;2022-12-07T08:16:12;5.30;99.90
21039;DHT22;10678;51.002;4.786;2022-12-07T08:18:40;5.40;99.90
21039;DHT22;10678;51.002;4.786;2022-12-07T08:21:08;5.60;99.90
21039;DHT22;10678;51.002;4.786;2022-12-07T08:23:35;5.80;99.90
21039;DHT22;10678;51.002;4.786;2022-12-07T08:26:02;5.90;99.90
21039;DHT22;10678;51.002;4.786;2022-12-07T08:28:29;6.20;99.90
21039;DHT22;10678;51.002;4.786;2022-12-07T08:31:07;6.30;99.90
21039;DHT22;10678;51.002;4.786;2022-12-07T08:33:34;6.30;99.90
21039;DHT22;10678;51.002;4.786;2022-12-07T08:36:02;6.20;99.90
21039;DHT22;10678;51.002;4.786;2022-12-07T08:38:27;6.10;99.90
21039;DHT22;10678;51.002;4.786;2022-12-07T08:40:57;6.10;99.90
21039;DHT22;10678;51.002;4.786;2022-12-07T08:43:23;6.00;99.90
21039;DHT22;10678;51.002;4.786;2022-12-07T08:46:05;6.00;99.90
21039;DHT22;10678;51.002;4.786;2022-12-07T08:48:32;6.00;99.90
21039;DHT22;10678;51.002;4.786;2022-12-07T08:50:58;6.20;99.90
21039;DHT22;10678;51.002;4.786;2022-12-07T08:53:24;6.10;99.90
21039;DHT22;10678;51.002;4.786;2022-12-07T08:55:50;6.10;99.90
21039;DHT22;10678;51.002;4.786;2022-12-07T08:58:15;6.10;99.90
21039;DHT22;10678;51.002;4.786;2022-12-07T09:00:41;6.00;99.90
21039;DHT22;10678;51.002;4.786;2022-12-07T09:03:07;6.10;99.90
21039;DHT22;10678;51.002;4.786;2022-12-07T09:05:33;6.30;99.90
21039;DHT22;10678;51.002;4.786;2022-12-07T09:08:00;6.50;99.90
21039;DHT22;10678;51.002;4.786;2022-12-07T09:10:27;6.60;99.90
21039;DHT22;10678;51.002;4.786;2022-12-07T09:12:53;6.60;99.90
21039;DHT22;10678;51.002;4.786;2022-12-07T09:15:18;6.70;99.90
21039;DHT22;10678;51.002;4.786;2022-12-07T09:17:44;6.80;99.90
21039;DHT22;10678;51.002;4.786;2022-12-07T09:20:10;7.10;99.90
21039;DHT22;10678;51.002;4.786;2022-12-07T09:22:37;7.40;99.90
21039;DHT22;10678;51.002;4.786;2022-12-07T09:25:03;7.30;99.90
21039;DHT22;10678;51.002;4.786;2022-12-07T09:27:29;7.20;99.90
21039;DHT22;10678;51.002;4.786;2022-12-07T09:29:54;7.20;99.90
21039;DHT22;10678;51.002;4.786;2022-12-07T09:32:20;7.20;99.90
21039;DHT22;10678;51.002;4.786;2022-12-07T09:34:46;7.20;99.90
21039;DHT22;10678;51.002;4.786;2022-12-07T09:37:12;7.40;99.90
21039;DHT22;10678;51.002;4.786;2022-12-07T09:39:38;7.80;99.90
21039;DHT22;10678;51.002;4.786;2022-12-07T09:42:05;8.10;99.90
21039;DHT22;10678;51.002;4.786;2022-12-07T09:44:33;8.40;99.90
21039;DHT22;10678;51.002;4.786;2022-12-07T09:46:59;8.60;99.90
21039;DHT22;10678;51.002;4.786;2022-12-07T09:49:29;8.40;99.90
21039;DHT22;10678;51.002;4.786;2022-12-07T09:54:36;8.60;99.90
21039;DHT22;10678;51.002;4.786;2022-12-07T09:57:03;8.70;99.90
21039;DHT22;10678;51.002;4.786;2022-12-07T09:59:29;8.70;99.90
21039;DHT22;10678;51.002;4.786;2022-12-07T10:01:55;8.80;99.90
21039;DHT22;10678;51.002;4.786;2022-12-07T10:04:23;8.90;99.90
21039;DHT22;10678;51.002;4.786;2022-12-07T10:06:49;8.70;99.90
21039;DHT22;10678;51.002;4.786;2022-12-07T10:09:18;8.80;99.90
21039;DHT22;10678;51.002;4.786;2022-12-07T10:12:06;8.60;99.90
21039;DHT22;10678;51.002;4.786;2022-12-07T10:14:34;8.80;99.90
21039;DHT22;10678;51.002;4.786;2022-12-07T10:17:00;9.30;99.90
21039;DHT22;10678;51.002;4.786;2022-12-07T10:19:31;9.70;99.90
21039;DHT22;10678;51.002;4.786;2022-12-07T10:24:34;9.80;99.90
21039;DHT22;10678;51.002;4.786;2022-12-07T10:27:00;9.90;99.90
21039;DHT22;10678;51.002;4.786;2022-12-07T10:29:37;10.00;99.90
21039;DHT22;10678;51.002;4.786;2022-12-07T10:34:54;10.40;99.90
21039;DHT22;10678;51.002;4.786;2022-12-07T10:37:40;10.50;99.90
21039;DHT22;10678;51.002;4.786;2022-12-07T10:40:25;10.30;99.90
21039;DHT22;10678;51.002;4.786;2022-12-07T10:43:20;10.10;99.90
21039;DHT22;10678;51.002;4.786;2022-12-07T10:46:10;10.10;99.90
21039;DHT22;10678;51.002;4.786;2022-12-07T10:51:43;9.70;99.90
21039;DHT22;10678;51.002;4.786;2022-12-07T10:54:26;9.70;99.90
21039;DHT22;10678;51.002;4.786;2022-12-07T10:57:12;9.70;99.90
21039;DHT22;10678;51.002;4.786;2022-12-07T11:11:33;11.60;99.90
21039;DHT22;10678;51.002;4.786;2022-12-07T11:13:28;11.70;99.90
21039;DHT22;10678;51.002;4.786;2022-12-07T11:21:45;11.50;99.90
21039;DHT22;10678;51.002;4.786;2022-12-07T11:27:25;11.70;99.90
21039;DHT22;10678;51.002;4.786;2022-12-07T11:30:18;11.90;99.90
21039;DHT22;10678;51.002;4.786;2022-12-07T11:33:00;11.80;99.90
21039;DHT22;10678;51.002;4.786;2022-12-07T11:38:52;11.20;99.90
21039;DHT22;10678;51.002;4.786;2022-12-07T11:41:31;10.90;99.90
21039;DHT22;10678;51.002;4.786;2022-12-07T11:44:08;10.80;99.90
21039;DHT22;10678;51.002;4.786;2022-12-07T11:46:55;10.70;99.90
21039;DHT22;10678;51.002;4.786;2022-12-07T11:52:42;10.30;99.90
21039;DHT22;10678;51.002;4.786;2022-12-07T11:58:10;9.70;99.90
21039;DHT22;10678;51.002;4.786;2022-12-07T12:00:37;9.70;99.90
21039;DHT22;10678;51.002;4.786;2022-12-07T12:03:11;9.70;99.90
21039;DHT22;10678;51.002;4.786;2022-12-07T12:05:39;9.50;99.90
21039;DHT22;10678;51.002;4.786;2022-12-07T12:08:16;9.70;99.90
21039;DHT22;10678;51.002;4.786;2022-12-07T12:10:57;9.60;99.90
21039;DHT22;10678;51.002;4.786;2022-12-07T12:19:11;10.20;99.90
21039;DHT22;10678;51.002;4.786;2022-12-07T12:21:41;10.40;99.90
21039;DHT22;10678;51.002;4.786;2022-12-07T12:24:19;10.90;99.90
21039;DHT22;10678;51.002;4.786;2022-12-07T12:26:54;11.40;99.90
21039;DHT22;10678;51.002;4.786;2022-12-07T12:29:31;11.50;99.90
21039;DHT22;10678;51.002;4.786;2022-12-07T12:42:52;10.90;99.90
21039;DHT22;10678;51.002;4.786;2022-12-07T12:50:47;10.50;99.90
21039;DHT22;10678;51.002;4.786;2022-12-07T12:53:26;10.40;99.90
21039;DHT22;10678;51.002;4.786;2022-12-07T12:59:36;10.40;99.90
21039;DHT22;10678;51.002;4.786;2022-12-07T13:02:34;10.50;99.90
21039;DHT22;10678;51.002;4.786;2022-12-07T13:08:33;10.70;99.90
21039;DHT22;10678;51.002;4.786;2022-12-07T13:10:42;10.50;99.90
21039;DHT22;10678;51.002;4.786;2022-12-07T13:15:45;10.20;99.90
21039;DHT22;10678;51.002;4.786;2022-12-07T13:21:02;9.80;99.90
21039;DHT22;10678;51.002;4.786;2022-12-07T13:23:37;9.70;99.90
21039;DHT22;10678;51.002;4.786;2022-12-07T13:26:22;9.70;99.90
21039;DHT22;10678;51.002;4.786;2022-12-07T13:36:56;9.10;99.90
21039;DHT22;10678;51.002;4.786;2022-12-07T13:39:24;9.00;99.90
21039;DHT22;10678;51.002;4.786;2022-12-07T13:41:58;8.80;99.90
21039;DHT22;10678;51.002;4.786;2022-12-07T13:44:27;8.70;99.90
21039;DHT22;10678;51.002;4.786;2022-12-07T13:47:16;8.60;99.90
21039;DHT22;10678;51.002;4.786;2022-12-07T13:49:52;8.50;99.90
21039;DHT22;10678;51.002;4.786;2022-12-07T13:52:23;8.70;99.90
21039;DHT22;10678;51.002;4.786;2022-12-07T13:57:21;8.90;99.90
21039;DHT22;10678;51.002;4.786;2022-12-07T13:59:47;8.90;99.90
21039;DHT22;10678;51.002;4.786;2022-12-07T14:02:22;8.80;99.90
21039;DHT22;10678;51.002;4.786;2022-12-07T14:04:50;8.90;99.90
21039;DHT22;10678;51.002;4.786;2022-12-07T14:07:28;8.90;99.90
21039;DHT22;10678;51.002;4.786;2022-12-07T14:12:25;8.90;99.90
21039;DHT22;10678;51.002;4.786;2022-12-07T14:14:51;8.80;99.90
21039;DHT22;10678;51.002;4.786;2022-12-07T14:17:19;8.70;99.90
21039;DHT22;10678;51.002;4.786;2022-12-07T14:19:55;8.60;99.90
21039;DHT22;10678;51.002;4.786;2022-12-07T14:22:32;8.50;99.90
21039;DHT22;10678;51.002;4.786;2022-12-07T14:27:33;8.20;99.90
21039;DHT22;10678;51.002;4.786;2022-12-07T14:30:01;8.10;99.90
21039;DHT22;10678;51.002;4.786;2022-12-07T14:32:29;7.90;99.90
21039;DHT22;10678;51.002;4.786;2022-12-07T14:35:10;7.60;99.90
21039;DHT22;10678;51.002;4.786;2022-12-07T14:37:36;7.50;99.90
21039;DHT22;10678;51.002;4.786;2022-12-07T14:40:02;7.60;99.90
21039;DHT22;10678;51.002;4.786;2022-12-07T14:42:30;7.60;99.90
21039;DHT22;10678;51.002;4.786;2022-12-07T14:44:56;7.60;99.90
21039;DHT22;10678;51.002;4.786;2022-12-07T14:47:23;7.60;99.90
21039;DHT22;10678;51.002;4.786;2022-12-07T14:49:49;7.60;99.90
21039;DHT22;10678;51.002;4.786;2022-12-07T14:52:19;7.50;99.90
21039;DHT22;10678;51.002;4.786;2022-12-07T14:54:46;7.50;99.90
21039;DHT22;10678;51.002;4.786;2022-12-07T14:57:11;7.50;99.90
21039;DHT22;10678;51.002;4.786;2022-12-07T14:59:37;7.50;99.90
21039;DHT22;10678;51.002;4.786;2022-12-07T15:02:04;7.50;99.90
21039;DHT22;10678;51.002;4.786;2022-12-07T15:04:29;7.40;99.90
21039;DHT22;10678;51.002;4.786;2022-12-07T15:06:56;7.40;99.90
21039;DHT22;10678;51.002;4.786;2022-12-07T15:09:22;7.40;99.90
21039;DHT22;10678;51.002;4.786;2022-12-07T15:11:48;7.40;99.90
21039;DHT22;10678;51.002;4.786;2022-12-07T15:14:13;7.40;99.90
21039;DHT22;10678;51.002;4.786;2022-12-07T15:16:41;7.30;99.90
21039;DHT22;10678;51.002;4.786;2022-12-07T15:19:22;7.20;99.90
21039;DHT22;10678;51.002;4.786;2022-12-07T15:21:51;7.20;99.90
21039;DHT22;10678;51.002;4.786;2022-12-07T15:24:17;7.00;99.90
21039;DHT22;10678;51.002;4.786;2022-12-07T15:26:43;6.80;99.90
21039;DHT22;10678;51.002;4.786;2022-12-07T15:29:09;6.80;99.90
21039;DHT22;10678;51.002;4.786;2022-12-07T15:31:36;6.80;99.90
21039;DHT22;10678;51.002;4.786;2022-12-07T15:34:02;6.60;99.90
21039;DHT22;10678;51.002;4.786;2022-12-07T15:36:29;6.50;99.90
21039;DHT22;10678;51.002;4.786;2022-12-07T15:38:56;6.50;99.90
21039;DHT22;10678;51.002;4.786;2022-12-07T15:41:21;6.30;99.90
21039;DHT22;10678;51.002;4.786;2022-12-07T15:43:47;6.20;99.90
21039;DHT22;10678;51.002;4.786;2022-12-07T15:46:33;6.20;99.90
21039;DHT22;10678;51.002;4.786;2022-12-07T15:48:59;6.10;99.90
21039;DHT22;10678;51.002;4.786;2022-12-07T15:51:25;6.00;99.90
21039;DHT22;10678;51.002;4.786;2022-12-07T15:53:51;6.00;99.90
21039;DHT22;10678;51.002;4.786;2022-12-07T15:56:17;5.90;99.90
21039;DHT22;10678;51.002;4.786;2022-12-07T15:58:43;5.90;99.90
21039;DHT22;10678;51.002;4.786;2022-12-07T16:01:16;5.90;99.90
21039;DHT22;10678;51.002;4.786;2022-12-07T16:03:42;5.80;99.90
21039;DHT22;10678;51.002;4.786;2022-12-07T16:06:08;5.90;99.90
21039;DHT22;10678;51.002;4.786;2022-12-07T16:08:34;5.90;99.90
21039;DHT22;10678;51.002;4.786;2022-12-07T16:11:05;5.90;99.90
21039;DHT22;10678;51.002;4.786;2022-12-07T16:13:30;5.90;99.90
21039;DHT22;10678;51.002;4.786;2022-12-07T16:15:57;5.90;99.90
21039;DHT22;10678;51.002;4.786;2022-12-07T16:18:23;5.90;99.90
21039;DHT22;10678;51.002;4.786;2022-12-07T16:20:49;6.00;99.90
21039;DHT22;10678;51.002;4.786;2022-12-07T16:23:15;6.00;99.90
21039;DHT22;10678;51.002;4.786;2022-12-07T16:25:41;6.10;99.90
21039;DHT22;10678;51.002;4.786;2022-12-07T16:28:07;6.10;99.90
21039;DHT22;10678;51.002;4.786;2022-12-07T16:30:33;6.00;99.90
21039;DHT22;10678;51.002;4.786;2022-12-07T16:32:59;5.90;99.90
21039;DHT22;10678;51.002;4.786;2022-12-07T16:35:24;5.90;99.90
21039;DHT22;10678;51.002;4.786;2022-12-07T16:37:50;6.00;99.90
21039;DHT22;10678;51.002;4.786;2022-12-07T16:40:16;6.10;99.90
21039;DHT22;10678;51.002;4.786;2022-12-07T16:42:41;6.20;99.90
21039;DHT22;10678;51.002;4.786;2022-12-07T16:45:07;6.20;99.90
21039;DHT22;10678;51.002;4.786;2022-12-07T16:47:33;6.20;99.90
21039;DHT22;10678;51.002;4.786;2022-12-07T16:50:02;6.30;99.90
21039;DHT22;10678;51.002;4.786;2022-12-07T16:52:27;6.20;99.90
21039;DHT22;10678;51.002;4.786;2022-12-07T16:54:53;6.30;99.90
21039;DHT22;10678;51.002;4.786;2022-12-07T16:57:18;6.30;99.90
21039;DHT22;10678;51.002;4.786;2022-12-07T16:59:45;6.30;99.90
21039;DHT22;10678;51.002;4.786;2022-12-07T17:02:11;6.40;99.90
21039;DHT22;10678;51.002;4.786;2022-12-07T17:04:37;6.30;99.90
21039;DHT22;10678;51.002;4.786;2022-12-07T17:07:05;6.40;99.90
21039;DHT22;10678;51.002;4.786;2022-12-07T17:09:31;6.40;99.90
21039;DHT22;10678;51.002;4.786;2022-12-07T17:11:56;6.40;99.90
21039;DHT22;10678;51.002;4.786;2022-12-07T17:14:22;6.30;99.90
21039;DHT22;10678;51.002;4.786;2022-12-07T17:17:06;6.50;99.90
21039;DHT22;10678;51.002;4.786;2022-12-07T17:19:32;6.60;99.90
21039;DHT22;10678;51.002;4.786;2022-12-07T17:21:58;6.70;99.90
21039;DHT22;10678;51.002;4.786;2022-12-07T17:24:23;6.50;99.90
21039;DHT22;10678;51.002;4.786;2022-12-07T17:26:49;6.60;99.90
21039;DHT22;10678;51.002;4.786;2022-12-07T17:29:17;6.50;99.90
21039;DHT22;10678;51.002;4.786;2022-12-07T17:31:43;6.50;99.90
21039;DHT22;10678;51.002;4.786;2022-12-07T17:34:11;6.30;99.90
21039;DHT22;10678;51.002;4.786;2022-12-07T17:36:36;6.40;99.90
21039;DHT22;10678;51.002;4.786;2022-12-07T17:39:09;6.40;99.90
21039;DHT22;10678;51.002;4.786;2022-12-07T17:41:36;6.40;99.90
21039;DHT22;10678;51.002;4.786;2022-12-07T17:44:21;6.40;99.90
21039;DHT22;10678;51.002;4.786;2022-12-07T17:46:48;6.40;99.90
21039;DHT22;10678;51.002;4.786;2022-12-07T17:49:15;6.40;99.90
21039;DHT22;10678;51.002;4.786;2022-12-07T17:51:41;6.30;99.90
21039;DHT22;10678;51.002;4.786;2022-12-07T17:54:25;6.40;99.90
21039;DHT22;10678;51.002;4.786;2022-12-07T17:56:51;6.30;99.90
21039;DHT22;10678;51.002;4.786;2022-12-07T17:59:17;6.30;99.90
21039;DHT22;10678;51.002;4.786;2022-12-07T18:01:43;6.30;99.90
21039;DHT22;10678;51.002;4.786;2022-12-07T18:04:09;6.30;99.90
21039;DHT22;10678;51.002;4.786;2022-12-07T18:06:35;6.20;99.90
21039;DHT22;10678;51.002;4.786;2022-12-07T18:09:02;6.30;99.90
21039;DHT22;10678;51.002;4.786;2022-12-07T18:11:28;6.20;99.90
21039;DHT22;10678;51.002;4.786;2022-12-07T18:13:53;6.30;99.90
21039;DHT22;10678;51.002;4.786;2022-12-07T18:16:25;6.30;99.90